Terminal Aerodrome Forecast
Issued by NWS Springfield, MO

Home | Current Version | Previous Version | Text Only | Print | Product List | Glossary On
Versions: 1 2 3 4 5 6 7 8 9 10 11 12 13 14
265
FTUS43 KSGF 092335
TAFSGF
TAF
KSGF 092335Z 1000/1024 32006KT P6SM SKC
     FM100400 26004KT P6SM SKC
     FM100800 20006KT P6SM SKC
     FM101000 21010KT P6SM SKC WS020/26045KT
     FM101400 23013G23KT P6SM SKC
     FM101700 26013G21KT P6SM SKC=

USA.gov is the U.S. government's official web portal to all federal, state and local government web resources and services.